Time;durP1;ratioP1;P1;durP2;ratioP2;P2;SDS_P1;SDS_P2;PMS_P1;PMS_P2;Temp;Humidity;BMP_temperature;BMP_pressure;BME280_temperature;BME280_humidity;BME280_pressure;Samples;Min_cycle;Max_cycle;Signal;HPM_P1;HPM_P2
2023/10/29 00:00:02;;;;;;;31.60;17.70;;;8.80;99.90;;;;;;5031055;28;20173;-81
2023/10/29 00:02:41;;;;;;;29.47;17.50;;;9.00;99.90;;;;;;4998491;28;20222;-82
2023/10/29 00:05:11;;;;;;;29.60;17.80;;;8.90;99.90;;;;;;5030995;28;20686;-81
2023/10/29 00:07:46;;;;;;;29.40;17.37;;;8.90;99.90;;;;;;5014463;28;20286;-79
2023/10/29 00:10:18;;;;;;;29.10;17.70;;;8.80;99.90;;;;;;5030708;28;20672;-82
2023/10/29 00:13:05;;;;;;;31.07;17.20;;;8.80;99.90;;;;;;5031861;28;20709;-76
2023/10/29 00:15:33;;;;;;;28.57;16.60;;;8.90;99.90;;;;;;5031373;28;20189;-76
2023/10/29 00:18:01;;;;;;;34.77;17.63;;;8.90;99.90;;;;;;5012731;28;20227;-76
2023/10/29 00:20:40;;;;;;;31.10;17.60;;;8.90;99.90;;;;;;5031941;28;20194;-82
2023/10/29 00:23:17;;;;;;;27.67;16.70;;;9.00;99.90;;;;;;5013142;28;20193;-78
2023/10/29 00:25:49;;;;;;;30.07;17.83;;;8.90;99.90;;;;;;4996958;28;20301;-81
2023/10/29 00:28:17;;;;;;;32.37;17.23;;;9.00;99.90;;;;;;5012659;28;20214;-81
2023/10/29 00:30:48;;;;;;;33.10;17.67;;;8.90;99.90;;;;;;5030498;28;20205;-80
2023/10/29 00:33:15;;;;;;;27.80;16.93;;;8.90;99.90;;;;;;5030746;28;20247;-77
2023/10/29 00:35:43;;;;;;;29.43;17.70;;;8.90;99.90;;;;;;5030515;28;20210;-82
2023/10/29 00:38:11;;;;;;;31.10;17.57;;;9.10;99.90;;;;;;5030901;28;20191;-82
2023/10/29 00:40:44;;;;;;;30.80;17.73;;;9.00;99.90;;;;;;5014254;28;20190;-78
2023/10/29 00:43:14;;;;;;;29.90;17.10;;;9.10;99.90;;;;;;5012463;28;20214;-75
2023/10/29 00:45:54;;;;;;;30.87;17.07;;;9.00;99.90;;;;;;5029943;28;20238;-82
2023/10/29 00:48:26;;;;;;;28.17;16.90;;;9.00;99.90;;;;;;5029767;28;20211;-76
2023/10/29 00:51:03;;;;;;;29.90;16.87;;;9.00;99.90;;;;;;5030169;28;20202;-81
2023/10/29 00:53:33;;;;;;;28.83;17.10;;;9.00;99.90;;;;;;5030087;28;20295;-81
2023/10/29 00:56:10;;;;;;;31.80;17.13;;;9.00;99.90;;;;;;5013708;28;20207;-80
2023/10/29 00:58:39;;;;;;;41.20;17.33;;;8.90;99.90;;;;;;5030407;28;20720;-77
2023/10/29 01:01:15;;;;;;;27.63;16.40;;;9.00;99.90;;;;;;5031410;28;20649;-81
2023/10/29 01:03:46;;;;;;;30.87;16.83;;;9.00;99.90;;;;;;5031333;28;20336;-80
2023/10/29 01:06:27;;;;;;;29.63;16.77;;;9.00;99.90;;;;;;5032592;28;20197;-76
2023/10/29 01:09:00;;;;;;;28.37;16.30;;;9.10;99.90;;;;;;5031556;28;20190;-76
2023/10/29 01:11:33;;;;;;;33.77;16.53;;;9.00;99.90;;;;;;5012198;28;20198;-81
2023/10/29 01:14:10;;;;;;;31.77;16.90;;;9.00;99.90;;;;;;5030136;28;20227;-79
2023/10/29 01:16:50;;;;;;;31.00;16.57;;;9.10;99.90;;;;;;5030718;28;20246;-77
2023/10/29 01:19:28;;;;;;;30.97;16.67;;;9.10;99.90;;;;;;5016000;28;20221;-81
2023/10/29 01:22:02;;;;;;;28.43;16.07;;;9.20;99.90;;;;;;5035007;28;20196;-81
2023/10/29 01:24:42;;;;;;;29.33;16.77;;;9.10;99.90;;;;;;5033749;28;20193;-77
2023/10/29 01:27:13;;;;;;;27.90;16.03;;;9.10;99.90;;;;;;5016794;28;20224;-82
2023/10/29 01:29:49;;;;;;;28.97;16.63;;;9.20;99.90;;;;;;5016640;28;20235;-81
2023/10/29 01:32:26;;;;;;;36.77;17.43;;;9.30;99.90;;;;;;5034436;28;20194;-79
2023/10/29 01:34:57;;;;;;;29.83;16.47;;;9.30;99.90;;;;;;5015816;28;20700;-79
2023/10/29 01:37:33;;;;;;;32.07;17.57;;;9.30;99.90;;;;;;5034948;28;20250;-82
2023/10/29 01:40:06;;;;;;;32.00;17.83;;;9.30;99.90;;;;;;5017689;28;20199;-81
2023/10/29 01:42:43;;;;;;;32.57;16.50;;;9.10;99.90;;;;;;5016025;28;20202;-82
2023/10/29 01:45:14;;;;;;;31.47;16.20;;;9.20;99.90;;;;;;5017173;28;20183;-78
2023/10/29 01:47:54;;;;;;;32.93;16.60;;;9.20;99.90;;;;;;5033786;28;20207;-81
2023/10/29 01:50:36;;;;;;;32.70;16.77;;;9.20;99.90;;;;;;5033671;28;20201;-82
2023/10/29 01:53:04;;;;;;;35.00;17.77;;;9.10;99.90;;;;;;5016665;28;20620;-77
2023/10/29 01:55:40;;;;;;;30.07;16.57;;;9.20;99.90;;;;;;5033996;28;20249;-81
2023/10/29 01:58:18;;;;;;;33.10;16.40;;;9.20;99.90;;;;;;5015475;28;20191;-81
2023/10/29 02:00:55;;;;;;;32.40;17.30;;;9.20;99.90;;;;;;5032952;28;20202;-82
2023/10/29 02:03:36;;;;;;;31.03;16.47;;;9.30;99.90;;;;;;5032283;28;20261;-80
2023/10/29 02:06:21;;;;;;;34.17;16.17;;;9.20;99.90;;;;;;5033734;28;20272;-81
2023/10/29 02:08:57;;;;;;;33.47;16.90;;;9.10;99.90;;;;;;5033253;28;20229;-81
2023/10/29 02:11:32;;;;;;;40.77;17.43;;;9.30;99.90;;;;;;5033533;28;20198;-81
2023/10/29 02:14:06;;;;;;;36.47;17.03;;;9.30;99.90;;;;;;5015464;28;20222;-80
2023/10/29 02:16:40;;;;;;;36.90;17.93;;;9.30;99.90;;;;;;5033652;28;20627;-82
2023/10/29 02:19:14;;;;;;;33.43;17.67;;;9.40;99.90;;;;;;5032511;28;20211;-80
2023/10/29 02:21:44;;;;;;;35.03;17.53;;;9.40;99.90;;;;;;5015311;28;20253;-78
2023/10/29 02:24:16;;;;;;;36.13;17.33;;;9.40;99.90;;;;;;5033314;28;20193;-76
2023/10/29 02:29:43;;;;;;;37.73;18.40;;;9.30;99.90;;;;;;4936665;28;20339;-75
2023/10/29 02:32:20;;;;;;;38.37;17.83;;;9.30;99.90;;;;;;4935754;28;20209;-76
2023/10/29 02:35:01;;;;;;;34.70;17.23;;;9.10;99.90;;;;;;4953350;29;20300;-80
2023/10/29 02:37:37;;;;;;;37.87;17.93;;;9.20;99.90;;;;;;4952636;29;20558;-76
2023/10/29 02:40:13;;;;;;;35.73;17.67;;;9.20;99.90;;;;;;4951725;29;20225;-77
2023/10/29 02:42:47;;;;;;;40.90;17.63;;;9.30;99.90;;;;;;4952674;29;20207;-78
2023/10/29 02:45:18;;;;;;;43.77;18.60;;;9.30;99.90;;;;;;4951719;29;20210;-76
2023/10/29 02:47:49;;;;;;;41.77;18.00;;;9.40;99.90;;;;;;4952044;28;20253;-76
2023/10/29 02:50:22;;;;;;;35.00;16.53;;;9.40;99.90;;;;;;4950641;29;20211;-78
2023/10/29 02:52:53;;;;;;;38.40;17.37;;;9.30;99.90;;;;;;4951676;29;20244;-79
2023/10/29 02:55:21;;;;;;;39.17;18.60;;;9.30;99.90;;;;;;4951574;29;20224;-81
2023/10/29 02:57:48;;;;;;;40.00;18.27;;;9.30;99.90;;;;;;4951467;29;20222;-81
2023/10/29 03:00:24;;;;;;;38.47;16.83;;;9.40;99.90;;;;;;4950944;29;20302;-81
2023/10/29 03:02:58;;;;;;;40.90;18.07;;;9.30;99.90;;;;;;4934871;29;20225;-77
2023/10/29 03:05:30;;;;;;;42.80;19.23;;;9.30;99.90;;;;;;4951716;29;20208;-78
2023/10/29 03:08:26;;;;;;;37.37;16.87;;;9.40;99.90;;;;;;5032041;28;20234;-78
2023/10/29 03:10:54;;;;;;;39.30;17.53;;;9.40;99.90;;;;;;5032428;28;20202;-81
2023/10/29 03:13:22;;;;;;;49.20;18.15;;;9.40;99.90;;;;;;4997231;28;20601;-81
2023/10/29 03:15:53;;;;;;;38.60;17.60;;;9.40;99.90;;;;;;5014036;28;20218;-82
2023/10/29 03:18:23;;;;;;;41.03;17.50;;;9.40;99.90;;;;;;5031754;28;20223;-81
2023/10/29 03:20:53;;;;;;;39.73;17.70;;;9.50;99.90;;;;;;5014244;28;20740;-80
2023/10/29 03:23:24;;;;;;;41.50;18.00;;;9.50;99.90;;;;;;5031603;28;20194;-76
2023/10/29 03:26:05;;;;;;;40.00;18.10;;;9.40;99.90;;;;;;5032043;28;20252;-80
2023/10/29 03:28:37;;;;;;;41.97;17.67;;;9.50;99.90;;;;;;4951102;29;20206;-77
2023/10/29 03:31:18;;;;;;;42.43;18.27;;;9.40;99.90;;;;;;4950793;29;20205;-81
2023/10/29 03:33:51;;;;;;;47.17;18.80;;;9.30;99.90;;;;;;4932000;29;20227;-80
2023/10/29 03:36:24;;;;;;;45.07;18.40;;;9.30;99.90;;;;;;4931404;29;20237;-81
2023/10/29 03:38:57;;;;;;;47.77;18.50;;;9.30;99.90;;;;;;4931379;29;20217;-76
2023/10/29 03:41:27;;;;;;;41.20;18.03;;;9.30;99.90;;;;;;4930997;29;20215;-76
2023/10/29 03:43:54;;;;;;;42.70;18.60;;;9.40;99.90;;;;;;4931555;29;20220;-76
2023/10/29 03:46:28;;;;;;;42.53;19.13;;;9.30;99.90;;;;;;4960101;28;20204;-75
2023/10/29 03:48:58;;;;;;;43.43;18.23;;;9.40;99.90;;;;;;5011054;28;20246;-77
2023/10/29 03:51:29;;;;;;;45.43;18.73;;;9.50;99.90;;;;;;5011860;28;20196;-81
2023/10/29 03:54:00;;;;;;;49.50;19.37;;;9.30;99.90;;;;;;5010962;28;20219;-80
2023/10/29 03:56:28;;;;;;;39.23;18.07;;;9.40;99.90;;;;;;5012099;28;20203;-80
2023/10/29 03:59:03;;;;;;;45.60;18.70;;;9.30;99.90;;;;;;5011038;28;20299;-76
2023/10/29 04:01:38;;;;;;;47.70;18.47;;;9.40;99.90;;;;;;5010756;28;20653;-78
2023/10/29 04:04:09;;;;;;;45.97;18.30;;;9.40;99.90;;;;;;5010218;28;20220;-75
2023/10/29 04:06:42;;;;;;;42.53;18.37;;;9.40;99.90;;;;;;5011019;28;20272;-78
2023/10/29 04:09:10;;;;;;;45.67;19.03;;;9.40;99.90;;;;;;5011550;28;20636;-75
2023/10/29 04:11:43;;;;;;;46.47;19.10;;;9.40;99.90;;;;;;5011684;28;20231;-75
2023/10/29 04:14:19;;;;;;;45.07;18.70;;;9.40;99.90;;;;;;5010641;28;20229;-76
2023/10/29 04:16:54;;;;;;;46.60;18.80;;;9.40;99.90;;;;;;5011658;28;20249;-74
2023/10/29 04:19:24;;;;;;;56.97;20.43;;;9.40;99.90;;;;;;5011059;28;20208;-76
2023/10/29 04:21:55;;;;;;;48.07;19.87;;;9.40;99.90;;;;;;4992487;28;20547;-75
2023/10/29 04:24:39;;;;;;;52.13;19.70;;;9.40;99.90;;;;;;5011220;28;20192;-75
2023/10/29 04:27:07;;;;;;;50.17;19.43;;;9.30;99.90;;;;;;5011214;28;20176;-80
2023/10/29 04:29:34;;;;;;;52.40;19.90;;;9.40;99.90;;;;;;5010584;28;20194;-75
2023/10/29 04:32:05;;;;;;;52.67;19.20;;;9.40;99.90;;;;;;5010615;28;20192;-75
2023/10/29 04:34:40;;;;;;;51.00;19.57;;;9.40;99.90;;;;;;5011225;28;20246;-76
2023/10/29 04:37:08;;;;;;;51.40;19.97;;;9.40;99.90;;;;;;5030840;28;20202;-75
2023/10/29 04:39:45;;;;;;;52.37;20.53;;;9.60;99.90;;;;;;5029320;28;20788;-75
2023/10/29 04:42:14;;;;;;;51.37;20.17;;;9.60;99.90;;;;;;5029716;28;20237;-76
2023/10/29 04:44:42;;;;;;;50.83;19.63;;;9.50;99.90;;;;;;5029928;28;20193;-82
2023/10/29 04:47:16;;;;;;;50.90;20.43;;;9.50;99.90;;;;;;5014526;28;20177;-81
2023/10/29 04:49:44;;;;;;;51.57;19.57;;;9.60;99.90;;;;;;5031036;28;20188;-81
2023/10/29 04:52:15;;;;;;;59.13;20.57;;;9.50;99.90;;;;;;5030870;28;20326;-80
2023/10/29 04:54:43;;;;;;;56.67;20.67;;;9.60;99.90;;;;;;5031877;28;20230;-76
2023/10/29 04:57:12;;;;;;;50.07;20.57;;;9.60;99.90;;;;;;5034657;28;20525;-75
2023/10/29 04:59:44;;;;;;;51.70;21.10;;;9.70;99.90;;;;;;5033472;28;20654;-80
2023/10/29 05:02:22;;;;;;;51.97;21.77;;;9.80;99.90;;;;;;5033500;28;20651;-76
2023/10/29 05:04:55;;;;;;;52.33;21.87;;;9.70;99.90;;;;;;5017254;28;20303;-81
2023/10/29 05:07:23;;;;;;;53.43;21.53;;;9.70;99.90;;;;;;5034885;28;20594;-75
2023/10/29 05:09:52;;;;;;;55.00;21.60;;;9.60;99.90;;;;;;5015545;28;20195;-75
2023/10/29 05:12:34;;;;;;;61.90;22.83;;;9.60;99.90;;;;;;5034031;28;20226;-75
2023/10/29 05:15:08;;;;;;;52.67;21.73;;;9.60;99.90;;;;;;5034042;28;20677;-75
2023/10/29 05:17:43;;;;;;;52.40;21.37;;;9.70;99.90;;;;;;5033285;28;20222;-81
2023/10/29 05:20:16;;;;;;;58.97;22.50;;;9.70;99.90;;;;;;5016441;28;20183;-81
2023/10/29 05:22:47;;;;;;;64.80;22.57;;;9.80;99.90;;;;;;5016169;28;20194;-81
2023/10/29 05:25:18;;;;;;;56.07;22.83;;;9.90;99.90;;;;;;5034407;28;20200;-80
2023/10/29 05:27:58;;;;;;;50.73;21.37;;;9.90;99.90;;;;;;5034710;28;20205;-76
2023/10/29 05:30:30;;;;;;;50.43;20.73;;;9.80;99.90;;;;;;5033743;28;20180;-78
2023/10/29 05:33:00;;;;;;;53.33;21.63;;;9.80;99.90;;;;;;5033393;28;20649;-81
2023/10/29 05:35:51;;;;;;;49.50;21.83;;;9.90;99.90;;;;;;5032835;28;20377;-81
2023/10/29 05:38:24;;;;;;;56.40;21.53;;;9.90;99.90;;;;;;5035197;28;20209;-76
2023/10/29 05:40:55;;;;;;;49.63;21.47;;;10.00;99.90;;;;;;5033317;28;20637;-81
2023/10/29 05:43:26;;;;;;;50.30;21.50;;;10.00;99.90;;;;;;5034702;28;20227;-75
2023/10/29 05:46:10;;;;;;;53.70;22.37;;;10.00;99.90;;;;;;5033872;28;20487;-77
2023/10/29 05:48:44;;;;;;;45.97;20.87;;;10.00;99.90;;;;;;5032368;28;20214;-76
2023/10/29 05:51:20;;;;;;;52.63;21.37;;;10.00;99.90;;;;;;5033662;28;20240;-77
2023/10/29 05:53:55;;;;;;;50.53;20.97;;;10.00;99.90;;;;;;5033020;28;20297;-76
2023/10/29 05:56:28;;;;;;;44.23;20.70;;;10.00;99.90;;;;;;5032950;28;20202;-75
2023/10/29 05:59:06;;;;;;;43.47;19.30;;;10.10;99.90;;;;;;5033060;28;20253;-75
2023/10/29 06:01:38;;;;;;;40.40;19.53;;;10.10;99.90;;;;;;5032763;28;20764;-75
2023/10/29 06:04:11;;;;;;;39.43;19.57;;;10.10;99.90;;;;;;5033422;28;20242;-76
2023/10/29 06:06:50;;;;;;;38.83;18.83;;;10.10;99.90;;;;;;5014885;28;20253;-75
2023/10/29 06:09:17;;;;;;;43.70;20.07;;;10.20;99.90;;;;;;5033112;28;20203;-76
2023/10/29 06:11:52;;;;;;;42.50;19.57;;;10.10;99.90;;;;;;5032324;28;20643;-76
2023/10/29 06:14:24;;;;;;;40.97;19.10;;;10.20;99.90;;;;;;5034479;28;20277;-80
2023/10/29 06:17:00;;;;;;;37.53;18.83;;;10.30;99.90;;;;;;5032901;28;20191;-76
2023/10/29 06:19:52;;;;;;;32.40;16.97;;;10.30;99.90;;;;;;5031385;28;20214;-76
2023/10/29 06:22:28;;;;;;;34.13;16.57;;;10.20;99.90;;;;;;5032541;28;20270;-76
2023/10/29 06:25:07;;;;;;;30.30;16.03;;;10.40;99.90;;;;;;5032227;28;20199;-75
2023/10/29 06:27:52;;;;;;;28.17;15.53;;;10.30;99.90;;;;;;5032539;28;20184;-81
2023/10/29 06:30:20;;;;;;;27.57;15.77;;;10.30;99.90;;;;;;5031907;28;20195;-76
2023/10/29 06:32:56;;;;;;;30.33;15.87;;;10.30;99.90;;;;;;5031734;28;20237;-76
2023/10/29 06:35:25;;;;;;;30.50;15.43;;;10.50;99.90;;;;;;5030496;28;20262;-80
2023/10/29 06:37:53;;;;;;;25.90;14.23;;;10.50;99.90;;;;;;5033445;28;20196;-81
2023/10/29 06:40:29;;;;;;;25.03;13.60;;;10.30;99.90;;;;;;5031906;28;20207;-77
2023/10/29 06:43:06;;;;;;;24.40;13.47;;;10.40;99.90;;;;;;5031239;28;20202;-76
2023/10/29 06:45:35;;;;;;;23.10;13.47;;;10.50;99.90;;;;;;5031258;28;20199;-81
2023/10/29 06:48:09;;;;;;;25.90;14.23;;;10.60;99.90;;;;;;5032906;28;20212;-75
2023/10/29 06:50:46;;;;;;;24.63;13.57;;;10.90;99.90;;;;;;5031740;28;20310;-76
2023/10/29 06:53:19;;;;;;;22.27;13.27;;;10.80;99.90;;;;;;5031403;28;20210;-74
2023/10/29 06:56:06;;;;;;;25.50;13.53;;;10.90;99.90;;;;;;5031918;28;20233;-77
2023/10/29 06:58:38;;;;;;;25.60;13.30;;;11.00;99.90;;;;;;5032058;28;20240;-76
2023/10/29 07:01:09;;;;;;;21.23;12.87;;;11.00;99.90;;;;;;5031413;28;20199;-76
2023/10/29 07:03:42;;;;;;;23.67;12.80;;;11.10;99.90;;;;;;5031737;28;20223;-76
2023/10/29 07:06:15;;;;;;;25.13;13.27;;;11.00;99.90;;;;;;5032162;28;20212;-76
2023/10/29 07:09:00;;;;;;;23.13;12.70;;;11.10;99.90;;;;;;5032047;28;20189;-81
2023/10/29 07:11:51;;;;;;;21.33;11.90;;;11.10;99.90;;;;;;5029675;28;20669;-77
2023/10/29 07:14:21;;;;;;;21.47;12.03;;;11.20;99.90;;;;;;4952209;29;20198;-76
2023/10/29 07:16:56;;;;;;;27.17;12.57;;;11.20;99.90;;;;;;4950079;28;20294;-76
2023/10/29 07:19:36;;;;;;;20.07;11.70;;;11.20;99.90;;;;;;4969943;28;20324;-82
2023/10/29 07:22:09;;;;;;;15.90;10.43;;;11.20;99.90;;;;;;4970095;28;20285;-82
2023/10/29 07:24:46;;;;;;;19.53;11.03;;;11.10;99.90;;;;;;4971027;28;20295;-78
2023/10/29 07:27:17;;;;;;;16.87;10.60;;;11.00;99.90;;;;;;4970969;28;20244;-82
2023/10/29 07:29:47;;;;;;;17.70;10.33;;;10.90;99.90;;;;;;4970005;28;20265;-82
2023/10/29 07:32:23;;;;;;;23.77;11.73;;;11.00;99.90;;;;;;4970758;28;20258;-76
2023/10/29 07:34:56;;;;;;;17.17;10.60;;;11.00;99.90;;;;;;4953969;28;20331;-75
2023/10/29 07:37:30;;;;;;;19.10;10.53;;;11.30;99.90;;;;;;4970889;28;20205;-76
2023/10/29 07:39:58;;;;;;;16.80;9.83;;;11.20;99.90;;;;;;4970128;28;20227;-82
2023/10/29 07:42:35;;;;;;;20.57;10.20;;;11.40;99.90;;;;;;4969657;28;20410;-75
2023/10/29 07:45:02;;;;;;;19.20;9.87;;;11.80;99.90;;;;;;4970846;28;20213;-82
2023/10/29 07:47:42;;;;;;;16.57;9.90;;;12.10;99.90;;;;;;4954710;28;20252;-82
2023/10/29 07:50:13;;;;;;;14.70;9.37;;;12.20;99.90;;;;;;4970953;28;20597;-77
2023/10/29 07:52:54;;;;;;;15.40;9.07;;;12.40;99.90;;;;;;5014994;28;20183;-77
2023/10/29 07:55:25;;;;;;;14.70;8.77;;;12.70;99.90;;;;;;5031096;28;20219;-76
2023/10/29 07:58:02;;;;;;;13.50;8.17;;;12.70;99.90;;;;;;5031059;28;20196;-76
2023/10/29 08:00:36;;;;;;;14.40;8.50;;;12.90;99.90;;;;;;5032320;28;20198;-81
2023/10/29 08:03:34;;;;;;;15.03;8.47;;;12.70;99.90;;;;;;4999573;28;20596;-81
2023/10/29 08:06:15;;;;;;;13.03;8.83;;;12.80;99.90;;;;;;5014732;28;20188;-81
2023/10/29 08:08:52;;;;;;;13.40;8.50;;;12.90;99.90;;;;;;5030398;28;20191;-81
2023/10/29 08:11:27;;;;;;;13.20;7.87;;;12.90;99.90;;;;;;5031689;28;20219;-82
2023/10/29 08:14:02;;;;;;;14.57;8.10;;;13.20;99.90;;;;;;5030678;28;20241;-81
2023/10/29 08:16:42;;;;;;;16.27;8.07;;;13.20;99.90;;;;;;5031363;28;20553;-78
2023/10/29 08:19:16;;;;;;;27.20;9.27;;;13.30;99.90;;;;;;5012869;28;20273;-77
2023/10/29 08:21:59;;;;;;;14.43;7.63;;;13.50;99.90;;;;;;5030920;28;20633;-76
2023/10/29 08:24:29;;;;;;;11.90;6.83;;;13.50;99.90;;;;;;5030885;28;20211;-75
2023/10/29 08:27:07;;;;;;;11.37;7.47;;;13.70;99.90;;;;;;5031177;28;20531;-75
2023/10/29 08:29:45;;;;;;;16.40;7.67;;;14.10;99.90;;;;;;5030150;28;20198;-76
2023/10/29 08:32:27;;;;;;;15.50;7.60;;;14.40;99.90;;;;;;5030764;28;20200;-76
2023/10/29 08:35:01;;;;;;;14.83;6.97;;;14.70;99.90;;;;;;5029728;28;20222;-77
2023/10/29 08:37:40;;;;;;;12.33;6.87;;;14.90;99.90;;;;;;5031526;28;20223;-75
2023/10/29 08:40:15;;;;;;;12.33;6.87;;;15.20;99.90;;;;;;5029435;28;20246;-76
2023/10/29 08:42:46;;;;;;;10.93;6.60;;;15.20;99.90;;;;;;5030004;28;20211;-76
2023/10/29 08:45:16;;;;;;;10.87;6.60;;;15.50;99.90;;;;;;5029430;28;20360;-82
2023/10/29 08:48:04;;;;;;;16.87;6.43;;;15.70;99.90;;;;;;5029810;28;20581;-75
2023/10/29 08:50:52;;;;;;;13.23;6.43;;;15.80;99.90;;;;;;5030033;28;20183;-80
2023/10/29 08:53:25;;;;;;;18.90;6.77;;;16.20;99.90;;;;;;5031122;28;20215;-81
2023/10/29 08:56:05;;;;;;;11.17;5.63;;;16.50;99.90;;;;;;5029894;28;20682;-81
2023/10/29 08:58:37;;;;;;;13.20;6.47;;;16.60;99.90;;;;;;5030334;28;20281;-81
2023/10/29 09:01:12;;;;;;;14.77;6.07;;;16.90;99.90;;;;;;5031719;28;20202;-81
2023/10/29 09:03:46;;;;;;;12.37;5.53;;;17.10;99.90;;;;;;5029478;28;20249;-81
2023/10/29 09:06:24;;;;;;;11.73;5.73;;;17.30;99.90;;;;;;5029971;28;20191;-82
2023/10/29 09:09:04;;;;;;;16.10;6.23;;;17.50;99.90;;;;;;5030501;28;20191;-76
2023/10/29 09:12:01;;;;;;;12.17;5.80;;;17.50;99.90;;;;;;5030084;28;20183;-76
2023/10/29 09:14:44;;;;;;;9.30;5.40;;;17.50;99.90;;;;;;4996421;28;20203;-82
2023/10/29 09:17:13;;;;;;;11.13;5.67;;;17.70;99.90;;;;;;5012530;28;20693;-77
2023/10/29 09:20:05;;;;;;;9.10;5.57;;;17.70;99.90;;;;;;5012746;28;20207;-78
2023/10/29 09:22:33;;;;;;;8.77;4.90;;;17.40;99.90;;;;;;5029531;28;20203;-76
2023/10/29 09:25:23;;;;;;;8.57;5.23;;;17.40;99.90;;;;;;5010456;28;20222;-76
2023/10/29 09:28:11;;;;;;;13.50;5.40;;;17.50;99.90;;;;;;5031188;28;20198;-82
2023/10/29 09:30:41;;;;;;;14.03;5.30;;;17.40;99.90;;;;;;5013125;28;20196;-74
2023/10/29 09:33:13;;;;;;;11.57;5.90;;;17.30;99.90;;;;;;5012471;28;20232;-82
2023/10/29 09:35:56;;;;;;;15.80;6.00;;;17.10;99.90;;;;;;5014475;28;20560;-77
2023/10/29 09:38:30;;;;;;;9.80;5.40;;;17.00;99.90;;;;;;5013233;28;20203;-82
2023/10/29 09:41:01;;;;;;;11.07;5.37;;;17.10;99.90;;;;;;4999332;28;20210;-80
2023/10/29 09:43:41;;;;;;;14.30;5.90;;;17.00;99.90;;;;;;5016651;28;20227;-77
2023/10/29 09:46:16;;;;;;;9.17;5.07;;;16.90;99.90;;;;;;5034011;28;20184;-79
2023/10/29 09:48:53;;;;;;;8.20;4.83;;;16.70;99.90;;;;;;4953233;28;20278;-77
2023/10/29 09:51:30;;;;;;;12.70;5.80;;;16.70;99.90;;;;;;4954015;29;20242;-77
2023/10/29 09:54:07;;;;;;;9.47;5.00;;;16.40;99.90;;;;;;4953849;29;20297;-77
2023/10/29 09:56:45;;;;;;;9.50;5.23;;;16.50;99.90;;;;;;4952961;29;20230;-77
2023/10/29 09:59:20;;;;;;;10.70;5.07;;;16.60;99.90;;;;;;4952588;29;20202;-82
2023/10/29 10:01:50;;;;;;;8.47;4.60;;;16.80;99.90;;;;;;4953543;29;20201;-75
2023/10/29 10:04:25;;;;;;;11.40;5.23;;;16.90;99.90;;;;;;4937457;29;20715;-82
2023/10/29 10:06:54;;;;;;;9.17;4.60;;;17.30;99.90;;;;;;4990629;28;20353;-77
2023/10/29 10:09:48;;;;;;;9.53;4.57;;;17.90;99.90;;;;;;5032908;28;20184;-75
2023/10/29 10:12:24;;;;;;;6.53;4.37;;;18.20;99.90;;;;;;5032825;28;20220;-75
2023/10/29 10:15:04;;;;;;;7.10;4.40;;;18.50;99.90;;;;;;5032468;28;20282;-76
2023/10/29 10:17:47;;;;;;;10.90;4.20;;;18.40;99.90;;;;;;5032499;28;20694;-77
2023/10/29 10:20:21;;;;;;;10.60;4.53;;;18.70;99.90;;;;;;5015881;28;20603;-78
2023/10/29 10:22:59;;;;;;;7.93;4.30;;;18.70;99.90;;;;;;5033023;28;20283;-77
2023/10/29 10:25:32;;;;;;;8.67;4.37;;;18.80;99.90;;;;;;5032719;28;20210;-77
2023/10/29 10:28:04;;;;;;;11.07;4.90;;;19.30;99.90;;;;;;5014749;28;20180;-77
2023/10/29 10:30:39;;;;;;;15.10;4.90;;;19.30;99.90;;;;;;5014358;28;20246;-83
2023/10/29 10:33:18;;;;;;;8.67;4.17;;;19.40;99.90;;;;;;5033205;28;20235;-83
2023/10/29 10:36:00;;;;;;;8.63;3.90;;;19.80;99.90;;;;;;4999549;28;20267;-77
2023/10/29 10:38:29;;;;;;;6.73;3.53;;;20.30;99.90;;;;;;5013455;28;20199;-76
2023/10/29 10:41:09;;;;;;;7.27;3.97;;;20.90;99.90;;;;;;5016300;28;20396;-77
2023/10/29 10:43:43;;;;;;;7.80;4.00;;;21.10;99.90;;;;;;5014151;28;20199;-75
2023/10/29 10:46:17;;;;;;;6.03;3.70;;;21.30;99.90;;;;;;5031128;28;20203;-83
2023/10/29 10:48:45;;;;;;;7.53;3.80;;;21.40;99.90;;;;;;5033483;28;20238;-76
2023/10/29 10:51:18;;;;;;;8.27;3.97;;;21.20;99.90;;;;;;5031651;28;20191;-83
2023/10/29 10:53:51;;;;;;;7.73;3.40;;;21.60;99.90;;;;;;4998274;28;20195;-76
2023/10/29 10:56:28;;;;;;;11.47;4.20;;;22.10;99.90;;;;;;5013805;28;20632;-75
2023/10/29 10:59:13;;;;;;;11.73;4.00;;;22.40;99.90;;;;;;5032324;28;20211;-82
2023/10/29 11:01:48;;;;;;;6.40;3.43;;;22.80;99.90;;;;;;5014323;28;20657;-76
2023/10/29 11:04:30;;;;;;;7.10;3.80;;;22.70;99.90;;;;;;5031672;28;20243;-80
2023/10/29 11:07:06;;;;;;;5.43;3.33;;;22.50;99.90;;;;;;5032395;28;20561;-84
2023/10/29 11:09:36;;;;;;;5.60;3.23;;;22.20;99.90;;;;;;5031574;28;20200;-84
2023/10/29 11:12:15;;;;;;;5.63;3.20;;;22.40;99.90;;;;;;5031426;28;20234;-83
2023/10/29 11:15:13;;;;;;;7.60;3.57;;;22.90;99.90;;;;;;5015647;28;20250;-77
2023/10/29 11:18:02;;;;;;;6.20;3.40;;;22.90;99.90;;;;;;5031953;28;20394;-76
2023/10/29 11:20:49;;;;;;;8.93;3.43;;;23.20;99.90;;;;;;5031674;28;20286;-84
2023/10/29 11:23:33;;;;;;;5.63;2.90;;;22.90;99.90;;;;;;5031219;28;20199;-82
2023/10/29 11:26:30;;;;;;;5.23;2.87;;;23.40;99.90;;;;;;5014143;28;20187;-78
2023/10/29 11:29:35;;;;;;;5.80;2.90;;;23.70;99.90;;;;;;5014558;28;20187;-78
2023/10/29 11:32:30;;;;;;;7.75;2.90;;;24.30;99.90;;;;;;5016447;28;20554;-85
2023/10/29 11:35:20;;;;;;;5.15;2.80;;;25.00;99.90;;;;;;5011645;28;20244;-82
2023/10/29 11:38:16;;;;;;;7.43;2.75;;;25.00;99.90;;;;;;5011981;28;20195;-83
2023/10/29 11:40:54;;;;;;;6.00;3.53;;;25.00;99.90;;;;;;5010673;28;20215;-76
2023/10/29 11:43:40;;;;;;;7.50;2.92;;;24.70;99.90;;;;;;5011325;28;20240;-75
2023/10/29 11:46:14;;;;;;;4.65;2.72;;;25.10;99.90;;;;;;5011496;28;20328;-76
2023/10/29 11:49:07;;;;;;;5.25;2.58;;;25.80;99.90;;;;;;4994255;28;20219;-76
2023/10/29 11:51:37;;;;;;;5.40;2.67;;;25.80;99.90;;;;;;5012137;28;20818;-76
2023/10/29 11:54:12;;;;;;;4.22;2.50;;;26.20;99.90;;;;;;5011532;28;20200;-76
2023/10/29 11:56:51;;;;;;;4.60;2.70;;;26.90;99.90;;;;;;4992271;28;20219;-82
2023/10/29 11:59:21;;;;;;;5.78;2.75;;;27.40;99.90;;;;;;5011865;28;20200;-79
2023/10/29 12:01:54;;;;;;;4.07;2.42;;;27.10;99.90;;;;;;5010706;28;20303;-87
2023/10/29 12:04:32;;;;;;;12.50;3.25;;;26.80;99.90;;;;;;4993350;28;20490;-76
2023/10/29 12:07:01;;;;;;;14.73;3.05;;;26.30;99.90;;;;;;5010713;28;20693;-83
2023/10/29 12:09:31;;;;;;;7.07;3.30;;;25.90;99.90;;;;;;5011957;28;20274;-85
2023/10/29 12:12:09;;;;;;;12.75;2.90;;;26.10;99.90;;;;;;5010539;28;20263;-84
2023/10/29 12:14:49;;;;;;;5.15;2.40;;;26.50;99.90;;;;;;5011079;28;20219;-85
2023/10/29 12:17:21;;;;;;;5.53;2.47;;;26.30;99.90;;;;;;5011015;28;20255;-78
2023/10/29 12:20:01;;;;;;;8.43;2.83;;;25.70;99.90;;;;;;4995987;28;20200;-78
2023/10/29 12:22:45;;;;;;;6.05;2.30;;;25.80;99.90;;;;;;4994355;28;20719;-78
2023/10/29 12:25:15;;;;;;;5.07;2.60;;;25.80;99.90;;;;;;4993038;28;20199;-79
2023/10/29 12:27:45;;;;;;;5.72;2.47;;;25.80;99.90;;;;;;5011023;28;20263;-80
2023/10/29 12:30:34;;;;;;;4.95;2.30;;;26.00;99.90;;;;;;5009793;28;20224;-85
2023/10/29 12:33:27;;;;;;;10.48;3.10;;;25.40;99.90;;;;;;5011528;28;20271;-78
2023/10/29 12:35:56;;;;;;;3.50;2.13;;;24.90;99.90;;;;;;5011475;28;20187;-76
2023/10/29 12:38:27;;;;;;;6.13;2.70;;;24.10;99.90;;;;;;5011595;28;20256;-76
2023/10/29 12:41:11;;;;;;;8.43;2.50;;;23.50;99.90;;;;;;5010858;28;20214;-77
2023/10/29 12:43:52;;;;;;;4.83;2.30;;;23.20;99.90;;;;;;4993572;28;20199;-76
2023/10/29 12:46:24;;;;;;;4.47;2.07;;;23.00;99.90;;;;;;5011110;28;20200;-77
2023/10/29 12:49:08;;;;;;;6.50;2.63;;;22.80;99.90;;;;;;5010813;28;20247;-78
2023/10/29 12:51:40;;;;;;;3.90;2.23;;;22.40;99.90;;;;;;4992789;28;20195;-77
2023/10/29 12:54:16;;;;;;;4.27;2.20;;;22.10;99.90;;;;;;5010547;28;20234;-76
2023/10/29 12:56:57;;;;;;;5.40;2.33;;;21.70;99.90;;;;;;5009860;28;20243;-76
2023/10/29 12:59:27;;;;;;;6.33;2.20;;;21.40;99.90;;;;;;5010150;28;20218;-76
2023/10/29 13:02:05;;;;;;;3.53;2.20;;;21.30;99.90;;;;;;5009404;28;20207;-76
2023/10/29 13:04:38;;;;;;;4.47;2.33;;;21.10;99.90;;;;;;5010431;28;20530;-77
2023/10/29 13:07:11;;;;;;;5.97;1.90;;;21.00;99.90;;;;;;5010391;28;20656;-75
2023/10/29 13:09:40;;;;;;;5.93;1.80;;;20.70;99.90;;;;;;5009941;28;20211;-76
2023/10/29 13:12:08;;;;;;;5.33;2.30;;;20.30;99.90;;;;;;5010069;28;20207;-76
2023/10/29 13:14:36;;;;;;;3.33;1.83;;;20.20;99.90;;;;;;5010045;28;20730;-77
2023/10/29 13:17:05;;;;;;;3.73;1.90;;;20.00;99.90;;;;;;5013795;28;20211;-83
2023/10/29 13:19:33;;;;;;;5.67;2.13;;;19.60;99.90;;;;;;5013654;28;20211;-75
2023/10/29 13:22:01;;;;;;;3.77;1.87;;;19.30;99.90;;;;;;5013875;28;20195;-75